createdAt,value
2019-03-12T00:00:14.114Z,94711.61
2019-03-12T00:02:42.547Z,94713.27
2019-03-12T00:05:11.127Z,94714.32
2019-03-12T00:07:39.549Z,94724.01
2019-03-12T00:10:09.141Z,94722.73
2019-03-12T00:12:37.589Z,94728.43
2019-03-12T00:15:07.079Z,94731.67
2019-03-12T00:17:35.488Z,94737.06
2019-03-12T00:20:05.291Z,94738.34
2019-03-12T00:22:33.780Z,94741.53
2019-03-12T00:25:02.214Z,94746.61
2019-03-12T00:27:30.662Z,94744.41
2019-03-12T00:29:59.087Z,94747.34
2019-03-12T00:32:27.763Z,94752.38
2019-03-12T00:34:56.177Z,94740.92
2019-03-12T00:37:24.592Z,94743.63
2019-03-12T00:39:53.298Z,94747.30
2019-03-12T00:42:21.802Z,94744.21
2019-03-12T00:44:50.289Z,94751.50
2019-03-12T00:47:19.073Z,94751.87
2019-03-12T00:49:47.485Z,94752.78
2019-03-12T00:52:15.908Z,94754.63
2019-03-12T00:54:44.350Z,94747.89
2019-03-12T00:57:12.794Z,94751.73
2019-03-12T00:59:41.242Z,94753.04
2019-03-12T01:02:09.650Z,94743.95
2019-03-12T01:04:38.094Z,94752.86
2019-03-12T01:07:06.561Z,94753.04
2019-03-12T01:09:35.171Z,94751.39
2019-03-12T01:12:03.641Z,94751.45
2019-03-12T01:14:32.147Z,94747.39
2019-03-12T01:17:00.613Z,94756.98
2019-03-12T01:19:29.099Z,94754.94
2019-03-12T01:21:57.519Z,94754.33
2019-03-12T01:24:25.988Z,94753.78
2019-03-12T01:26:54.397Z,94752.38
2019-03-12T01:29:22.825Z,94751.07
2019-03-12T01:31:51.335Z,94755.25
2019-03-12T01:34:19.862Z,94752.86
2019-03-12T01:36:48.272Z,94756.83
2019-03-12T01:39:16.735Z,94758.92
2019-03-12T01:41:45.139Z,94758.25
2019-03-12T01:44:13.557Z,94761.89
2019-03-12T01:46:42.010Z,94751.10
2019-03-12T01:49:10.458Z,94759.34
2019-03-12T01:51:38.867Z,94758.96
2019-03-12T01:54:07.394Z,94753.64
2019-03-12T01:56:35.824Z,94753.78
2019-03-12T01:59:04.269Z,94751.23
2019-03-12T02:01:32.711Z,94759.49
2019-03-12T02:04:01.157Z,94759.45
2019-03-12T02:06:29.605Z,94758.14
2019-03-12T02:08:58.025Z,94754.48
2019-03-12T02:11:26.783Z,94744.59
2019-03-12T02:13:55.195Z,94745.27
2019-03-12T02:16:23.610Z,94743.38
2019-03-12T02:18:52.064Z,94746.02
2019-03-12T02:21:20.474Z,94755.56
2019-03-12T02:23:48.939Z,94752.45
2019-03-12T02:26:17.357Z,94746.94
2019-03-12T02:28:45.800Z,94743.47
2019-03-12T02:31:14.287Z,94750.10
2019-03-12T02:33:42.800Z,94750.64
2019-03-12T02:36:11.307Z,94753.38
2019-03-12T02:38:39.724Z,94748.77
2019-03-12T02:41:08.349Z,94755.02
2019-03-12T02:43:36.748Z,94749.88
2019-03-12T02:46:05.281Z,94752.62
2019-03-12T02:48:33.766Z,94749.72
2019-03-12T02:51:02.257Z,94753.21
2019-03-12T02:53:30.896Z,94748.07
2019-03-12T02:56:01.712Z,94750.44
2019-03-12T02:58:29.462Z,94748.61
2019-03-12T03:00:57.900Z,94741.06
2019-03-12T03:03:26.619Z,94739.23
2019-03-12T03:05:59.416Z,94743.37
2019-03-12T03:08:31.952Z,94743.06
2019-03-12T03:11:00.427Z,94740.50
2019-03-12T03:13:28.844Z,94741.34
2019-03-12T03:15:57.381Z,94735.14
2019-03-12T03:18:25.798Z,94745.78
2019-03-12T03:20:54.212Z,94733.92
2019-03-12T03:23:22.957Z,94740.97
2019-03-12T03:25:51.375Z,94746.86
2019-03-12T03:28:19.798Z,94748.53
2019-03-12T03:30:48.224Z,94754.05
2019-03-12T03:33:16.672Z,94751.87
2019-03-12T03:35:45.186Z,94752.23
2019-03-12T03:38:13.679Z,94749.87
2019-03-12T03:40:42.091Z,94751.87
2019-03-12T03:43:10.552Z,94748.20
2019-03-12T03:45:39.002Z,94744.51
2019-03-12T03:48:07.418Z,94743.08
2019-03-12T03:50:35.967Z,94739.16
2019-03-12T03:53:04.370Z,94739.20
2019-03-12T03:55:32.868Z,94736.41
2019-03-12T03:58:01.461Z,94740.64
2019-03-12T04:00:29.918Z,94735.66
2019-03-12T04:02:58.405Z,94742.08
2019-03-12T04:05:26.883Z,94731.41
2019-03-12T04:07:55.302Z,94732.11
2019-03-12T04:10:23.719Z,94739.67
2019-03-12T04:12:52.167Z,94748.05
2019-03-12T04:15:20.658Z,94748.88
2019-03-12T04:17:49.141Z,94741.09
2019-03-12T04:20:18.632Z,94745.27
2019-03-12T04:22:47.175Z,94742.13
2019-03-12T04:25:16.163Z,94743.27
2019-03-12T04:27:44.577Z,94743.44
2019-03-12T04:30:18.303Z,94732.67
2019-03-12T04:32:47.094Z,94735.56
2019-03-12T04:35:29.896Z,94731.20
2019-03-12T04:38:07.239Z,94728.70
2019-03-12T04:40:35.907Z,94725.69
2019-03-12T04:43:04.414Z,94719.99
2019-03-12T04:45:33.036Z,94722.17
2019-03-12T04:48:01.476Z,94709.13
2019-03-12T04:50:29.887Z,94713.72
2019-03-12T04:52:59.255Z,94713.69
2019-03-12T04:55:27.697Z,94702.85
2019-03-12T04:57:56.155Z,94706.95
2019-03-12T05:00:24.714Z,94700.86
2019-03-12T05:02:53.136Z,94701.25
2019-03-12T05:05:21.581Z,94704.95
2019-03-12T05:07:50.033Z,94705.30
2019-03-12T05:10:18.557Z,94699.94
2019-03-12T05:12:46.991Z,94697.13
2019-03-12T05:15:19.261Z,94694.24
2019-03-12T05:17:47.804Z,94687.99
2019-03-12T05:20:16.671Z,94687.81
2019-03-12T05:22:45.110Z,94678.53
2019-03-12T05:25:14.767Z,94672.75
2019-03-12T05:27:43.643Z,94668.48
2019-03-12T05:30:14.534Z,94670.84
2019-03-12T05:32:42.956Z,94662.94
2019-03-12T05:35:11.551Z,94655.00
2019-03-12T05:37:39.964Z,94647.39
2019-03-12T05:40:10.827Z,94647.50
2019-03-12T05:42:39.308Z,94646.11
2019-03-12T05:45:10.798Z,94647.20
2019-03-12T05:47:39.219Z,94647.35
2019-03-12T05:50:10.718Z,94644.51
2019-03-12T05:52:39.132Z,94643.64
2019-03-12T05:55:09.445Z,94644.32
2019-03-12T05:57:37.874Z,94644.36
2019-03-12T06:00:09.444Z,94649.13
2019-03-12T06:02:37.886Z,94640.81
2019-03-12T06:05:07.188Z,94642.47
2019-03-12T06:07:35.608Z,94635.45
2019-03-12T06:10:06.611Z,94635.30
2019-03-12T06:12:35.076Z,94632.21
2019-03-12T06:15:04.534Z,94634.34
2019-03-12T06:17:33.006Z,94629.02
2019-03-12T06:20:01.415Z,94631.77
2019-03-12T06:22:29.875Z,94631.17
2019-03-12T06:24:58.300Z,94634.44
2019-03-12T06:27:26.751Z,94632.88
2019-03-12T06:29:55.258Z,94622.90
2019-03-12T06:32:28.070Z,94617.27
2019-03-12T06:34:58.192Z,94616.77
2019-03-12T06:37:31.045Z,94613.27
2019-03-12T06:40:06.808Z,94611.52
2019-03-12T06:42:36.900Z,94615.41
2019-03-12T06:45:13.694Z,94604.32
2019-03-12T06:47:46.415Z,94605.81
2019-03-12T06:50:24.354Z,94601.70
2019-03-12T06:52:59.928Z,94598.86
2019-03-12T06:55:30.092Z,94597.44
2019-03-12T06:58:22.356Z,94594.14
2019-03-12T07:00:55.260Z,94589.56
2019-03-12T07:03:28.313Z,94580.94
2019-03-12T07:05:58.395Z,94580.94
2019-03-12T07:08:28.483Z,94533.55
2019-03-12T07:11:01.687Z,94575.73
2019-03-12T07:13:34.709Z,94570.47
2019-03-12T07:16:05.874Z,94567.75
2019-03-12T07:18:44.816Z,94567.75
2019-03-12T07:21:27.234Z,94579.84
2019-03-12T07:24:09.364Z,94581.02
2019-03-12T07:26:42.224Z,94585.67
2019-03-12T07:29:14.872Z,94585.91
2019-03-12T07:31:45.028Z,94584.94
2019-03-12T07:34:18.500Z,94578.70
2019-03-12T07:36:54.714Z,94575.85
2019-03-12T07:39:33.669Z,94570.33
2019-03-12T07:42:09.320Z,94570.31
2019-03-12T07:44:48.084Z,94560.30
2019-03-12T07:47:35.808Z,94565.69
2019-03-12T07:50:14.927Z,94551.34
2019-03-12T07:52:56.933Z,94546.53
2019-03-12T07:55:29.735Z,94539.22
2019-03-12T07:58:01.249Z,94525.02
2019-03-12T08:00:31.409Z,94528.75
2019-03-12T08:03:17.337Z,94521.73
2019-03-12T08:05:47.467Z,94509.55
2019-03-12T08:08:17.552Z,94507.72
2019-03-12T08:10:56.552Z,94499.70
2019-03-12T08:13:41.995Z,94495.15
2019-03-12T08:16:12.150Z,94498.41
2019-03-12T08:18:47.772Z,94500.16
2019-03-12T08:21:34.282Z,94490.16
2019-03-12T08:24:04.335Z,94494.35
2019-03-12T08:26:34.435Z,94487.58
2019-03-12T08:29:21.016Z,94478.23
2019-03-12T08:32:03.494Z,94479.98
2019-03-12T08:34:33.588Z,94470.91
2019-03-12T08:37:06.356Z,94467.19
2019-03-12T08:39:42.450Z,94462.20
2019-03-12T08:42:15.232Z,94452.36
2019-03-12T08:45:01.842Z,94447.71
2019-03-12T08:47:48.088Z,94441.20
2019-03-12T08:50:34.375Z,94437.28
2019-03-12T08:53:07.233Z,94445.25
2019-03-12T08:55:43.254Z,94441.17
2019-03-12T08:58:13.325Z,94441.73
2019-03-12T09:00:43.446Z,94436.06
2019-03-12T09:03:30.043Z,94426.44
2019-03-12T09:06:08.799Z,94422.81
2019-03-12T09:08:42.072Z,94419.01
2019-03-12T09:11:12.166Z,94414.14
2019-03-12T09:13:52.464Z,94412.00
2019-03-12T09:16:28.684Z,94404.07
2019-03-12T09:19:01.466Z,94404.43
2019-03-12T09:21:31.502Z,94398.69
2019-03-12T09:24:07.240Z,94385.04
2019-03-12T09:26:43.625Z,94387.89
2019-03-12T09:29:16.489Z,94385.02
2019-03-12T09:31:58.598Z,94379.89
2019-03-12T09:34:34.467Z,94373.52
2019-03-12T09:37:10.503Z,94375.43
2019-03-12T09:39:55.711Z,94366.60
2019-03-12T09:42:44.316Z,94370.48
2019-03-12T09:45:26.446Z,94367.58
2019-03-12T09:47:58.985Z,94356.00
2019-03-12T09:50:29.082Z,94356.97
2019-03-12T09:53:17.293Z,94354.88
2019-03-12T09:55:56.311Z,94352.81
2019-03-12T09:58:38.356Z,94342.84
2019-03-12T10:01:11.189Z,94342.85
2019-03-12T10:03:41.335Z,94326.16
2019-03-12T10:06:17.712Z,94310.91
2019-03-12T10:08:47.832Z,94311.28
2019-03-12T10:11:29.833Z,94307.30
2019-03-12T10:14:06.153Z,94303.07
2019-03-12T10:16:42.068Z,94305.65
2019-03-12T10:19:30.079Z,94301.22
2019-03-12T10:22:12.243Z,94301.30
2019-03-12T10:24:42.424Z,94286.73
2019-03-12T10:27:28.919Z,94280.52
2019-03-12T10:30:14.961Z,94275.38
2019-03-12T10:32:53.750Z,94273.38
2019-03-12T10:35:23.912Z,94264.44
2019-03-12T10:38:03.031Z,94258.33
2019-03-12T10:40:33.083Z,94258.81
2019-03-12T10:43:15.951Z,94257.52
2019-03-12T10:45:49.049Z,94250.34
2019-03-12T10:48:18.087Z,94253.23
2019-03-12T10:50:47.991Z,94250.94
2019-03-12T10:53:16.451Z,94246.05
2019-03-12T10:55:44.874Z,94246.13
2019-03-12T10:58:13.423Z,94242.47
2019-03-12T11:00:42.567Z,94227.54
2019-03-12T11:03:10.983Z,94229.29
2019-03-12T11:05:45.909Z,94232.41
2019-03-12T11:08:09.807Z,94228.67
2019-03-12T11:10:38.362Z,94224.05
2019-03-12T11:13:06.837Z,94219.59
2019-03-12T11:15:35.365Z,94217.78
2019-03-12T11:18:03.955Z,94217.88
2019-03-12T11:20:32.452Z,94229.77
2019-03-12T11:23:01.116Z,94220.50
2019-03-12T11:25:29.605Z,94211.60
2019-03-12T11:27:58.081Z,94204.89
2019-03-12T11:30:26.580Z,94205.80
2019-03-12T11:32:55.119Z,94192.42
2019-03-12T11:35:23.662Z,94193.92
2019-03-12T11:37:52.236Z,94189.30
2019-03-12T11:40:23.070Z,94181.88
2019-03-12T11:42:51.689Z,94189.74
2019-03-12T11:45:25.970Z,94185.13
2019-03-12T11:47:50.537Z,94179.13
2019-03-12T11:50:23.623Z,94186.88
2019-03-12T11:52:57.164Z,94169.06
2019-03-12T11:55:22.475Z,94163.73
2019-03-12T11:57:51.058Z,94162.47
2019-03-12T12:00:28.998Z,94163.98
2019-03-12T12:03:00.271Z,94150.30
2019-03-12T12:05:28.474Z,94143.39
2019-03-12T12:07:56.999Z,94140.07
2019-03-12T12:10:25.744Z,94139.80
2019-03-12T12:12:54.277Z,94126.95
2019-03-12T12:15:22.910Z,94125.05
2019-03-12T12:17:51.457Z,94115.28
2019-03-12T12:20:29.377Z,94111.72
2019-03-12T12:22:50.270Z,94097.38
2019-03-12T12:25:19.769Z,94102.32
2019-03-12T12:27:48.288Z,94095.22
2019-03-12T12:30:24.092Z,94086.54
2019-03-12T12:32:52.649Z,94076.83
2019-03-12T12:35:21.186Z,94068.91
2019-03-12T12:37:49.625Z,94058.83
2019-03-12T12:40:19.510Z,94051.91
2019-03-12T12:42:48.094Z,94043.20
2019-03-12T12:45:19.083Z,94036.34
2019-03-12T12:47:47.642Z,94023.79
2019-03-12T12:50:16.366Z,94013.33
2019-03-12T12:52:44.968Z,94011.36
2019-03-12T12:55:14.659Z,94018.05
2019-03-12T12:57:43.222Z,94013.49
2019-03-12T13:00:15.027Z,93997.75
2019-03-12T13:02:43.620Z,93989.94
2019-03-12T13:05:12.188Z,93983.38
2019-03-12T13:07:40.676Z,93985.70
2019-03-12T13:10:20.757Z,93978.89
2019-03-12T13:12:49.314Z,93970.34
2019-03-12T13:15:17.898Z,93956.03
2019-03-12T13:17:46.384Z,93952.45
2019-03-12T13:20:15.172Z,93937.71
2019-03-12T13:22:43.721Z,93934.97
2019-03-12T13:25:14.674Z,93934.78
2019-03-12T13:27:43.554Z,93924.66
2019-03-12T13:30:17.992Z,93919.16
2019-03-12T13:32:46.562Z,93909.16
2019-03-12T13:35:17.294Z,93909.42
2019-03-12T13:37:45.985Z,93907.38
2019-03-12T13:40:22.678Z,93900.01
2019-03-12T13:42:51.359Z,93897.11
2019-03-12T13:45:22.516Z,93895.43
2019-03-12T13:47:51.097Z,93884.75
2019-03-12T13:50:20.066Z,93872.97
2019-03-12T13:52:48.757Z,93869.66
2019-03-12T13:55:17.457Z,93868.06
2019-03-12T13:57:46.181Z,93859.86
2019-03-12T14:00:20.307Z,93853.17
2019-03-12T14:02:48.875Z,93856.89
2019-03-12T14:05:17.420Z,93848.44
2019-03-12T14:07:45.941Z,93849.04
2019-03-12T14:10:22.303Z,93829.59
2019-03-12T14:12:52.106Z,93833.05
2019-03-12T14:15:26.134Z,93826.34
2019-03-12T14:17:54.712Z,93812.02
2019-03-12T14:20:40.392Z,93812.44
2019-03-12T14:23:10.679Z,93800.30
2019-03-12T14:25:39.243Z,93799.86
2019-03-12T14:28:07.838Z,93782.17
2019-03-12T14:30:36.427Z,93786.31
2019-03-12T14:33:05.047Z,93781.14
2019-03-12T14:35:33.644Z,93776.37
2019-03-12T14:38:02.168Z,93771.05
2019-03-12T14:40:30.664Z,93765.92
2019-03-12T14:42:59.254Z,93755.63
2019-03-12T14:45:31.058Z,93749.43
2019-03-12T14:47:59.657Z,93742.43
2019-03-12T14:50:30.121Z,93733.17
2019-03-12T14:53:07.463Z,93722.34
2019-03-12T14:55:35.435Z,93709.20
2019-03-12T14:58:03.885Z,93707.39
2019-03-12T15:00:32.470Z,93703.80
2019-03-12T15:03:01.039Z,93695.22
2019-03-12T15:05:29.581Z,93683.47
2019-03-12T15:07:58.147Z,93681.50
2019-03-12T15:10:26.643Z,93669.50
2019-03-12T15:12:55.173Z,93658.80
2019-03-12T15:15:23.735Z,93651.84
2019-03-12T15:17:52.153Z,93649.88
2019-03-12T15:20:20.752Z,93640.42
2019-03-12T15:22:49.249Z,93633.80
2019-03-12T15:25:17.858Z,93629.05
2019-03-12T15:27:46.288Z,93624.16
2019-03-12T15:30:23.559Z,93616.52
2019-03-12T15:32:51.988Z,93613.58
2019-03-12T15:35:20.476Z,93611.82
2019-03-12T15:37:49.081Z,93594.91
2019-03-12T15:40:17.642Z,93598.23
2019-03-12T15:42:46.735Z,93599.73
2019-03-12T15:45:16.345Z,93596.43
2019-03-12T15:47:44.859Z,93590.67
2019-03-12T15:50:18.943Z,93592.38
2019-03-12T15:52:47.626Z,93582.84
2019-03-12T15:55:16.118Z,93577.88
2019-03-12T15:57:44.592Z,93569.44
2019-03-12T16:00:16.252Z,93564.64
2019-03-12T16:02:44.757Z,93561.14
2019-03-12T16:05:13.415Z,93557.94
2019-03-12T16:07:41.954Z,93556.80
2019-03-12T16:10:15.186Z,93554.48
2019-03-12T16:12:43.793Z,93544.55
2019-03-12T16:15:14.562Z,93552.00
2019-03-12T16:17:43.095Z,93546.75
2019-03-12T16:20:22.521Z,93541.11
2019-03-12T16:22:51.113Z,93534.16
2019-03-12T16:25:19.603Z,93530.94
2019-03-12T16:27:48.129Z,93530.94
2019-03-12T16:30:17.788Z,93516.92
2019-03-12T16:32:46.304Z,93511.07
2019-03-12T16:35:14.864Z,93511.45
2019-03-12T16:37:43.309Z,93509.27
2019-03-12T16:40:16.808Z,93496.38
2019-03-12T16:42:45.389Z,93489.05
2019-03-12T16:45:16.155Z,93488.23
2019-03-12T16:47:44.698Z,93477.83
2019-03-12T16:50:16.974Z,93484.02
2019-03-12T16:52:45.539Z,93486.41
2019-03-12T16:55:20.491Z,93474.01
2019-03-12T16:57:48.901Z,93474.29
2019-03-12T17:00:18.878Z,93466.96
2019-03-12T17:02:47.464Z,93455.13
2019-03-12T17:05:16.314Z,93461.64
2019-03-12T17:07:44.917Z,93450.34
2019-03-12T17:10:20.731Z,93436.63
2019-03-12T17:12:49.308Z,93428.34
2019-03-12T17:15:22.817Z,93428.52
2019-03-12T17:17:51.309Z,93418.39
2019-03-12T17:20:19.891Z,93409.23
2019-03-12T17:22:48.488Z,93405.50
2019-03-12T17:25:17.049Z,93394.97
2019-03-12T17:27:45.559Z,93395.73
2019-03-12T17:30:19.385Z,93383.31
2019-03-12T17:32:47.951Z,93383.63
2019-03-12T17:35:30.945Z,93383.84
2019-03-12T17:37:59.598Z,93377.61
2019-03-12T17:40:28.097Z,93362.41
2019-03-12T17:42:56.588Z,93362.37
2019-03-12T17:45:25.188Z,93358.52
2019-03-12T17:47:53.763Z,93355.63
2019-03-12T17:50:22.427Z,93351.81
2019-03-12T17:52:50.862Z,93360.27
2019-03-12T17:55:19.423Z,93340.44
2019-03-12T17:57:50.582Z,93343.23
2019-03-12T18:00:28.362Z,93333.73
2019-03-12T18:02:56.745Z,93328.81
2019-03-12T18:05:25.266Z,93330.08
2019-03-12T18:07:54.107Z,93331.86
2019-03-12T18:10:22.538Z,93322.64
2019-03-12T18:12:51.109Z,93302.81
2019-03-12T18:15:20.500Z,93302.54
2019-03-12T18:17:49.374Z,93292.05
2019-03-12T18:20:22.573Z,93290.15
2019-03-12T18:22:51.109Z,93277.45
2019-03-12T18:25:28.419Z,93285.54
2019-03-12T18:27:57.103Z,93276.45
2019-03-12T18:30:25.615Z,93272.53
2019-03-12T18:32:54.159Z,93265.19
2019-03-12T18:35:22.641Z,93267.61
2019-03-12T18:37:51.240Z,93274.35
2019-03-12T18:40:21.680Z,93266.83
2019-03-12T18:42:50.283Z,93278.53
2019-03-12T18:45:26.863Z,93282.11
2019-03-12T18:47:55.340Z,93271.97
2019-03-12T18:50:23.862Z,93281.77
2019-03-12T18:52:52.434Z,93286.33
2019-03-12T18:55:38.187Z,93274.84
2019-03-12T18:58:10.300Z,93265.34
2019-03-12T19:00:41.099Z,93251.45
2019-03-12T19:03:09.577Z,93249.95
2019-03-12T19:05:38.103Z,93242.86
2019-03-12T19:08:06.700Z,93243.23
2019-03-12T19:10:35.217Z,93237.94
2019-03-12T19:13:03.708Z,93231.22
2019-03-12T19:15:32.315Z,93213.81
2019-03-12T19:18:00.817Z,93214.73
2019-03-12T19:20:32.756Z,93205.57
2019-03-12T19:22:59.566Z,93204.52
2019-03-12T19:25:39.642Z,93196.70
2019-03-12T19:28:08.218Z,93189.43
2019-03-12T19:30:36.861Z,93175.35
2019-03-12T19:33:14.443Z,93171.13
2019-03-12T19:35:42.954Z,93174.16
2019-03-12T19:38:11.533Z,93175.48
2019-03-12T19:40:45.339Z,93159.84
2019-03-12T19:43:14.091Z,93150.66
2019-03-12T19:45:42.897Z,93139.64
2019-03-12T19:48:11.467Z,93148.69
2019-03-12T19:50:40.017Z,93162.88
2019-03-12T19:53:08.655Z,93148.85
2019-03-12T19:55:40.047Z,93147.45
2019-03-12T19:58:08.664Z,93152.02
2019-03-12T20:00:38.036Z,93147.30
2019-03-12T20:03:12.060Z,93141.20
2019-03-12T20:05:37.082Z,93126.70
2019-03-12T20:08:05.754Z,93141.27
2019-03-12T20:10:58.067Z,93131.17
2019-03-12T20:13:46.258Z,93118.02
2019-03-12T20:16:32.769Z,93116.07
2019-03-12T20:19:29.659Z,93116.02
2019-03-12T20:22:20.885Z,93114.98
2019-03-12T20:25:14.666Z,93112.79
2019-03-12T20:28:01.347Z,93096.44
2019-03-12T20:30:59.274Z,93090.24
2019-03-12T20:34:02.439Z,93091.38
2019-03-12T20:36:49.037Z,93078.08
2019-03-12T20:39:29.251Z,93080.40
2019-03-12T20:42:15.901Z,93074.88
2019-03-12T20:45:20.966Z,93066.42
2019-03-12T20:48:11.638Z,93055.77
2019-03-12T20:51:17.008Z,93036.86
2019-03-12T20:54:15.940Z,93038.59
2019-03-12T20:57:07.245Z,93043.26
2019-03-12T21:00:09.875Z,93035.53
2019-03-12T21:03:04.103Z,93037.27
2019-03-12T21:06:07.418Z,93033.45
2019-03-12T21:08:58.600Z,93030.15
2019-03-12T21:11:41.646Z,93026.78
2019-03-12T21:14:29.558Z,93028.69
2019-03-12T21:17:34.380Z,93023.38
2019-03-12T21:20:40.761Z,93025.27
2019-03-12T21:23:17.870Z,93021.41
2019-03-12T21:25:58.216Z,93026.37
2019-03-12T21:28:38.495Z,93018.00
2019-03-12T21:31:07.271Z,93027.12
2019-03-12T21:33:35.766Z,93025.77
2019-03-12T21:36:07.941Z,93021.31
2019-03-12T21:38:35.861Z,93024.03
2019-03-12T21:41:04.418Z,92998.25
2019-03-12T21:43:32.935Z,93004.44
2019-03-12T21:46:01.490Z,92991.73
2019-03-12T21:48:29.959Z,92991.59
2019-03-12T21:50:58.448Z,92994.20
2019-03-12T21:53:26.916Z,92982.11
2019-03-12T21:55:55.346Z,92982.73
2019-03-12T21:58:23.771Z,92973.83
2019-03-12T22:00:52.287Z,92964.72
2019-03-12T22:03:20.732Z,92961.28
2019-03-12T22:05:49.256Z,92954.23
2019-03-12T22:08:17.649Z,92948.72
2019-03-12T22:10:46.173Z,92942.08
2019-03-12T22:13:14.796Z,92933.24
2019-03-12T22:15:43.216Z,92929.58
2019-03-12T22:18:11.723Z,92923.38
2019-03-12T22:20:40.194Z,92920.78
2019-03-12T22:23:28.437Z,92912.19
2019-03-12T22:25:57.127Z,92912.58
2019-03-12T22:28:25.545Z,92912.45
2019-03-12T22:30:54.099Z,92911.59
2019-03-12T22:33:22.616Z,92898.58
2019-03-12T22:35:51.188Z,92886.11
2019-03-12T22:38:19.663Z,92877.27
2019-03-12T22:40:48.072Z,92872.30
2019-03-12T22:43:16.590Z,92860.22
2019-03-12T22:45:45.550Z,92867.90
2019-03-12T22:48:13.969Z,92873.78
2019-03-12T22:50:42.455Z,92874.19
2019-03-12T22:53:10.914Z,92869.56
2019-03-12T22:55:39.330Z,92870.81
2019-03-12T22:58:07.760Z,92860.62
2019-03-12T23:00:40.008Z,92861.06
2019-03-12T23:03:08.621Z,92856.93
2019-03-12T23:05:38.077Z,92841.20
2019-03-12T23:08:06.628Z,92843.66
2019-03-12T23:10:35.269Z,92843.70
2019-03-12T23:13:03.758Z,92849.09
2019-03-12T23:15:32.435Z,92857.53
2019-03-12T23:18:00.954Z,92863.12
2019-03-12T23:20:29.427Z,92887.97
2019-03-12T23:22:57.880Z,92898.31
2019-03-12T23:25:26.294Z,92916.95
2019-03-12T23:27:54.744Z,92933.26
2019-03-12T23:30:24.278Z,92944.90
2019-03-12T23:32:53.763Z,92951.50
2019-03-12T23:35:22.267Z,92954.78
2019-03-12T23:37:50.869Z,92958.46
2019-03-12T23:40:19.701Z,92974.20
2019-03-12T23:42:48.274Z,92963.45
2019-03-12T23:45:18.071Z,92980.13
2019-03-12T23:47:50.013Z,92982.98
2019-03-12T23:50:19.938Z,93008.17
2019-03-12T23:52:48.421Z,93016.17
2019-03-12T23:55:18.267Z,93019.37
2019-03-12T23:57:47.045Z,93006.47
